This is the latest recevied weather packets stored in our database for station/object OE5WWO. If no packets are shown the sender has not sent any weather packets the latest 10 day(s).
| Time | Temp. | Humidity | Pressure | Rain* | Wind** | Luminosity | Snow |
|---|---|---|---|---|---|---|---|
| 1777417838 | 12.22° C | 49% | 1020.4 hPa | 0 mm | - | - | - |
| 1777417538 | 12.22° C | 48% | 1020.3 hPa | 0 mm | - | - | - |
| 1777415452 | 12.78° C | 46% | 1020 hPa | 0 mm | - | - | - |
| 1777413647 | 13.33° C | 45% | 1019.8 hPa | 0 mm | - | - | - |
| 1777413338 | 12.78° C | 45% | 1019.9 hPa | 0 mm | - | - | - |
| 1777412137 | 13.33° C | 45% | 1019.6 hPa | 0 mm | - | - | - |
| 1777411238 | 13.33° C | 46% | 1019.5 hPa | 0 mm | - | - | - |
| 1777410948 | 13.33° C | 45% | 1019.4 hPa | 0 mm | - | - | - |
| 1777408536 | 14.44° C | 41% | 1019.1 hPa | 0 mm | - | - | - |
| 1777408254 | 14.44° C | 41% | 1019 hPa | 0 mm | - | - | - |
| 1777407938 | 14.44° C | 41% | 1019.1 hPa | 0 mm | - | - | - |
| 1777407038 | 15° C | 40% | 1018.9 hPa | 0 mm | - | - | - |
| 1777406137 | 15° C | 40% | 1018.9 hPa | 0 mm | - | - | - |
| 1777405242 | 15° C | 39% | 1018.8 hPa | 0 mm | - | - | - |
| 1777404341 | 15.56° C | 40% | 1018.7 hPa | 0 mm | - | - | - |
| 1777402540 | 16.11° C | 41% | 1018.6 hPa | 0 mm | - | - | - |
| 1777400148 | 17.22° C | 39% | 1018.2 hPa | 0 mm | - | - | - |
| 1777399543 | 17.22° C | 38% | 1018 hPa | 0 mm | - | - | - |
| 1777397137 | 18.33° C | 37% | 1017.4 hPa | 0 mm | - | - | - |
| 1777396837 | 18.33° C | 37% | 1017.4 hPa | 0 mm | - | - | - |
| 1777395039 | 18.89° C | 38% | 1017 hPa | 0 mm | - | - | - |
| 1777394140 | 19.44° C | 37% | 1016.9 hPa | 0 mm | - | - | - |
| 1777393862 | 19.44° C | 35% | 1017 hPa | 0 mm | - | - | - |
| 1777392046 | 19.44° C | 36% | 1016.9 hPa | 0 mm | - | - | - |
| 1777391737 | 19.44° C | 36% | 1016.8 hPa | 0 mm | - | - | - |
* Rain latest hour (hover to see other rain measurements)
** Current wind speed in m/s (hover to see current wind gust speed)